sensor_id;sensor_type;location;lat;lon;timestamp;P1;durP1;ratioP1;P2;durP2;ratioP2
32746;SDS011;19118;50.860;13.662;2023-11-21T00:01:02;9.70;;;1.98;;
32746;SDS011;19118;50.860;13.662;2023-11-21T00:06:04;7.28;;;1.80;;
32746;SDS011;19118;50.860;13.662;2023-11-21T00:11:08;2.85;;;1.60;;
32746;SDS011;19118;50.860;13.662;2023-11-21T00:16:09;5.28;;;2.10;;
32746;SDS011;19118;50.860;13.662;2023-11-21T00:21:09;7.50;;;2.70;;
32746;SDS011;19118;50.860;13.662;2023-11-21T00:26:12;4.30;;;2.50;;
32746;SDS011;19118;50.860;13.662;2023-11-21T00:31:14;11.00;;;3.15;;
32746;SDS011;19118;50.860;13.662;2023-11-21T00:36:15;4.10;;;2.93;;
32746;SDS011;19118;50.860;13.662;2023-11-21T00:41:15;5.18;;;2.88;;
32746;SDS011;19118;50.860;13.662;2023-11-21T00:46:15;5.18;;;2.80;;
32746;SDS011;19118;50.860;13.662;2023-11-21T00:51:16;7.47;;;3.70;;
32746;SDS011;19118;50.860;13.662;2023-11-21T00:56:18;8.30;;;3.50;;
32746;SDS011;19118;50.860;13.662;2023-11-21T01:01:19;12.05;;;5.00;;
32746;SDS011;19118;50.860;13.662;2023-11-21T01:06:20;10.75;;;4.45;;
32746;SDS011;19118;50.860;13.662;2023-11-21T01:11:21;10.15;;;5.35;;
32746;SDS011;19118;50.860;13.662;2023-11-21T01:16:22;7.13;;;4.03;;
32746;SDS011;19118;50.860;13.662;2023-11-21T01:21:22;5.25;;;3.63;;
32746;SDS011;19118;50.860;13.662;2023-11-21T01:26:23;7.45;;;3.40;;
32746;SDS011;19118;50.860;13.662;2023-11-21T01:31:23;4.88;;;3.30;;
32746;SDS011;19118;50.860;13.662;2023-11-21T01:36:29;6.88;;;3.72;;
32746;SDS011;19118;50.860;13.662;2023-11-21T01:41:31;10.73;;;3.08;;
32746;SDS011;19118;50.860;13.662;2023-11-21T01:46:32;15.10;;;3.47;;
32746;SDS011;19118;50.860;13.662;2023-11-21T01:51:32;11.05;;;4.40;;
32746;SDS011;19118;50.860;13.662;2023-11-21T01:56:33;16.20;;;4.18;;
32746;SDS011;19118;50.860;13.662;2023-11-21T02:01:34;8.70;;;3.60;;
32746;SDS011;19118;50.860;13.662;2023-11-21T02:06:34;17.95;;;5.13;;
32746;SDS011;19118;50.860;13.662;2023-11-21T02:11:34;9.20;;;3.97;;
32746;SDS011;19118;50.860;13.662;2023-11-21T02:16:36;11.80;;;3.83;;
32746;SDS011;19118;50.860;13.662;2023-11-21T02:21:36;11.13;;;4.40;;
32746;SDS011;19118;50.860;13.662;2023-11-21T02:26:40;17.25;;;3.78;;
32746;SDS011;19118;50.860;13.662;2023-11-21T02:31:41;16.17;;;4.32;;
32746;SDS011;19118;50.860;13.662;2023-11-21T02:36:48;17.23;;;4.30;;
32746;SDS011;19118;50.860;13.662;2023-11-21T02:41:51;13.35;;;4.80;;
32746;SDS011;19118;50.860;13.662;2023-11-21T02:46:51;9.93;;;4.18;;
32746;SDS011;19118;50.860;13.662;2023-11-21T02:51:52;8.80;;;3.92;;
32746;SDS011;19118;50.860;13.662;2023-11-21T02:56:52;6.43;;;3.77;;
32746;SDS011;19118;50.860;13.662;2023-11-21T03:01:52;11.50;;;3.67;;
32746;SDS011;19118;50.860;13.662;2023-11-21T03:06:53;16.05;;;4.88;;
32746;SDS011;19118;50.860;13.662;2023-11-21T03:11:53;16.23;;;3.88;;
32746;SDS011;19118;50.860;13.662;2023-11-21T03:16:55;10.45;;;4.30;;
32746;SDS011;19118;50.860;13.662;2023-11-21T03:21:56;9.48;;;3.42;;
32746;SDS011;19118;50.860;13.662;2023-11-21T03:26:57;10.07;;;3.38;;
32746;SDS011;19118;50.860;13.662;2023-11-21T03:31:58;23.00;;;3.70;;
32746;SDS011;19118;50.860;13.662;2023-11-21T03:36:58;11.02;;;4.28;;
32746;SDS011;19118;50.860;13.662;2023-11-21T03:41:58;6.40;;;4.38;;
32746;SDS011;19118;50.860;13.662;2023-11-21T03:46:59;10.75;;;4.22;;
32746;SDS011;19118;50.860;13.662;2023-11-21T03:51:59;8.38;;;4.47;;
32746;SDS011;19118;50.860;13.662;2023-11-21T03:56:59;18.27;;;4.97;;
32746;SDS011;19118;50.860;13.662;2023-11-21T04:02:00;14.55;;;5.15;;
32746;SDS011;19118;50.860;13.662;2023-11-21T04:07:00;11.67;;;4.97;;
32746;SDS011;19118;50.860;13.662;2023-11-21T04:12:00;11.80;;;4.70;;
32746;SDS011;19118;50.860;13.662;2023-11-21T04:17:01;8.60;;;5.00;;
32746;SDS011;19118;50.860;13.662;2023-11-21T04:22:01;11.20;;;5.57;;
32746;SDS011;19118;50.860;13.662;2023-11-21T04:27:02;13.57;;;4.88;;
32746;SDS011;19118;50.860;13.662;2023-11-21T04:32:03;13.05;;;5.07;;
32746;SDS011;19118;50.860;13.662;2023-11-21T04:37:04;9.55;;;5.25;;
32746;SDS011;19118;50.860;13.662;2023-11-21T04:42:06;17.75;;;5.85;;
32746;SDS011;19118;50.860;13.662;2023-11-21T04:47:06;14.00;;;5.33;;
32746;SDS011;19118;50.860;13.662;2023-11-21T04:52:07;14.90;;;5.55;;
32746;SDS011;19118;50.860;13.662;2023-11-21T04:57:09;15.68;;;5.38;;
32746;SDS011;19118;50.860;13.662;2023-11-21T05:02:09;17.50;;;5.70;;
32746;SDS011;19118;50.860;13.662;2023-11-21T05:07:10;14.88;;;6.38;;
32746;SDS011;19118;50.860;13.662;2023-11-21T05:12:10;17.83;;;6.22;;
32746;SDS011;19118;50.860;13.662;2023-11-21T05:17:11;14.77;;;6.40;;
32746;SDS011;19118;50.860;13.662;2023-11-21T05:22:11;10.30;;;5.63;;
32746;SDS011;19118;50.860;13.662;2023-11-21T05:27:12;17.58;;;5.53;;
32746;SDS011;19118;50.860;13.662;2023-11-21T05:32:12;20.73;;;5.95;;
32746;SDS011;19118;50.860;13.662;2023-11-21T05:37:13;21.97;;;6.27;;
32746;SDS011;19118;50.860;13.662;2023-11-21T05:42:13;22.40;;;6.07;;
32746;SDS011;19118;50.860;13.662;2023-11-21T05:47:13;15.63;;;6.60;;
32746;SDS011;19118;50.860;13.662;2023-11-21T05:52:14;20.02;;;6.40;;
32746;SDS011;19118;50.860;13.662;2023-11-21T05:57:14;14.98;;;6.47;;
32746;SDS011;19118;50.860;13.662;2023-11-21T06:02:14;19.95;;;8.10;;
32746;SDS011;19118;50.860;13.662;2023-11-21T06:07:15;19.83;;;7.30;;
32746;SDS011;19118;50.860;13.662;2023-11-21T06:12:15;25.33;;;7.35;;
32746;SDS011;19118;50.860;13.662;2023-11-21T06:17:16;24.90;;;8.60;;
32746;SDS011;19118;50.860;13.662;2023-11-21T06:22:16;15.40;;;7.43;;
32746;SDS011;19118;50.860;13.662;2023-11-21T06:27:16;17.23;;;7.20;;
32746;SDS011;19118;50.860;13.662;2023-11-21T06:32:17;24.27;;;8.45;;
32746;SDS011;19118;50.860;13.662;2023-11-21T06:37:17;13.65;;;6.20;;
32746;SDS011;19118;50.860;13.662;2023-11-21T06:42:18;22.33;;;7.47;;
32746;SDS011;19118;50.860;13.662;2023-11-21T06:47:19;32.40;;;9.15;;
32746;SDS011;19118;50.860;13.662;2023-11-21T06:52:20;25.52;;;9.52;;
32746;SDS011;19118;50.860;13.662;2023-11-21T06:57:22;21.70;;;9.55;;
32746;SDS011;19118;50.860;13.662;2023-11-21T07:02:23;25.70;;;8.70;;
32746;SDS011;19118;50.860;13.662;2023-11-21T07:07:23;19.67;;;8.27;;
32746;SDS011;19118;50.860;13.662;2023-11-21T07:12:24;25.25;;;8.20;;
32746;SDS011;19118;50.860;13.662;2023-11-21T07:17:25;21.88;;;7.43;;
32746;SDS011;19118;50.860;13.662;2023-11-21T07:22:26;28.13;;;9.40;;
32746;SDS011;19118;50.860;13.662;2023-11-21T07:27:26;22.25;;;7.53;;
32746;SDS011;19118;50.860;13.662;2023-11-21T07:32:27;25.50;;;8.10;;
32746;SDS011;19118;50.860;13.662;2023-11-21T07:37:28;24.35;;;7.88;;
32746;SDS011;19118;50.860;13.662;2023-11-21T07:42:28;27.00;;;8.38;;
32746;SDS011;19118;50.860;13.662;2023-11-21T07:47:29;27.57;;;7.20;;
32746;SDS011;19118;50.860;13.662;2023-11-21T07:52:29;15.77;;;7.13;;
32746;SDS011;19118;50.860;13.662;2023-11-21T07:57:29;19.45;;;7.95;;
32746;SDS011;19118;50.860;13.662;2023-11-21T08:02:30;17.43;;;6.80;;
32746;SDS011;19118;50.860;13.662;2023-11-21T08:07:30;26.73;;;8.97;;
32746;SDS011;19118;50.860;13.662;2023-11-21T08:12:31;27.75;;;8.57;;
32746;SDS011;19118;50.860;13.662;2023-11-21T08:17:31;38.90;;;11.43;;
32746;SDS011;19118;50.860;13.662;2023-11-21T08:22:32;23.10;;;9.73;;
32746;SDS011;19118;50.860;13.662;2023-11-21T08:27:34;26.55;;;10.02;;
32746;SDS011;19118;50.860;13.662;2023-11-21T08:32:37;36.25;;;10.32;;
32746;SDS011;19118;50.860;13.662;2023-11-21T08:37:37;22.88;;;9.27;;
32746;SDS011;19118;50.860;13.662;2023-11-21T08:42:39;22.30;;;8.90;;
32746;SDS011;19118;50.860;13.662;2023-11-21T08:47:39;21.35;;;9.48;;
32746;SDS011;19118;50.860;13.662;2023-11-21T08:52:39;24.05;;;9.50;;
32746;SDS011;19118;50.860;13.662;2023-11-21T08:57:41;29.33;;;9.00;;
32746;SDS011;19118;50.860;13.662;2023-11-21T09:02:44;25.17;;;9.05;;
32746;SDS011;19118;50.860;13.662;2023-11-21T09:07:44;19.95;;;8.23;;
32746;SDS011;19118;50.860;13.662;2023-11-21T09:12:46;22.27;;;8.82;;
32746;SDS011;19118;50.860;13.662;2023-11-21T09:17:46;16.58;;;8.73;;
32746;SDS011;19118;50.860;13.662;2023-11-21T09:22:47;11.82;;;6.43;;
32746;SDS011;19118;50.860;13.662;2023-11-21T09:27:48;18.77;;;8.65;;
32746;SDS011;19118;50.860;13.662;2023-11-21T09:32:48;11.95;;;6.88;;
32746;SDS011;19118;50.860;13.662;2023-11-21T09:37:48;18.93;;;6.23;;
32746;SDS011;19118;50.860;13.662;2023-11-21T09:42:56;30.85;;;13.45;;
32746;SDS011;19118;50.860;13.662;2023-11-21T09:47:58;13.57;;;8.20;;
32746;SDS011;19118;50.860;13.662;2023-11-21T09:53:18;10.82;;;6.50;;
32746;SDS011;19118;50.860;13.662;2023-11-21T09:58:24;14.10;;;5.97;;
32746;SDS011;19118;50.860;13.662;2023-11-21T10:03:27;7.78;;;5.20;;
32746;SDS011;19118;50.860;13.662;2023-11-21T10:08:27;6.82;;;4.85;;
32746;SDS011;19118;50.860;13.662;2023-11-21T10:13:29;7.03;;;4.95;;
32746;SDS011;19118;50.860;13.662;2023-11-21T10:18:32;10.27;;;5.38;;
32746;SDS011;19118;50.860;13.662;2023-11-21T10:23:34;38.63;;;23.08;;
32746;SDS011;19118;50.860;13.662;2023-11-21T10:28:35;14.88;;;9.50;;
32746;SDS011;19118;50.860;13.662;2023-11-21T10:33:37;9.95;;;7.22;;
32746;SDS011;19118;50.860;13.662;2023-11-21T10:38:42;6.13;;;3.88;;
32746;SDS011;19118;50.860;13.662;2023-11-21T10:43:43;1.90;;;1.67;;
32746;SDS011;19118;50.860;13.662;2023-11-21T10:48:43;2.13;;;1.20;;
32746;SDS011;19118;50.860;13.662;2023-11-21T10:53:44;1.15;;;0.95;;
32746;SDS011;19118;50.860;13.662;2023-11-21T10:58:45;6.03;;;2.97;;
32746;SDS011;19118;50.860;13.662;2023-11-21T11:03:46;8.23;;;2.90;;
32746;SDS011;19118;50.860;13.662;2023-11-21T11:08:47;1.98;;;1.48;;
32746;SDS011;19118;50.860;13.662;2023-11-21T11:13:48;16.95;;;4.85;;
32746;SDS011;19118;50.860;13.662;2023-11-21T11:18:48;71.10;;;7.37;;
32746;SDS011;19118;50.860;13.662;2023-11-21T11:23:53;733.30;;;33.78;;
32746;SDS011;19118;50.860;13.662;2023-11-21T11:29:00;176.32;;;11.23;;
32746;SDS011;19118;50.860;13.662;2023-11-21T11:34:13;382.75;;;19.13;;
32746;SDS011;19118;50.860;13.662;2023-11-21T11:39:28;135.73;;;13.30;;
32746;SDS011;19118;50.860;13.662;2023-11-21T11:50:24;649.47;;;36.08;;
32746;SDS011;19118;50.860;13.662;2023-11-21T11:55:18;215.88;;;18.77;;
32746;SDS011;19118;50.860;13.662;2023-11-21T12:00:42;24.38;;;10.73;;
32746;SDS011;19118;50.860;13.662;2023-11-21T12:05:42;555.72;;;35.72;;
32746;SDS011;19118;50.860;13.662;2023-11-21T12:10:45;655.97;;;39.60;;
32746;SDS011;19118;50.860;13.662;2023-11-21T12:15:45;1379.20;;;76.75;;
32746;SDS011;19118;50.860;13.662;2023-11-21T12:20:46;974.85;;;53.38;;
32746;SDS011;19118;50.860;13.662;2023-11-21T12:25:48;1373.90;;;84.25;;
32746;SDS011;19118;50.860;13.662;2023-11-21T12:30:49;982.53;;;61.45;;
32746;SDS011;19118;50.860;13.662;2023-11-21T12:35:49;919.15;;;56.47;;
32746;SDS011;19118;50.860;13.662;2023-11-21T12:40:50;969.42;;;63.05;;
32746;SDS011;19118;50.860;13.662;2023-11-21T12:45:51;361.83;;;26.60;;
32746;SDS011;19118;50.860;13.662;2023-11-21T12:51:05;528.25;;;36.83;;
32746;SDS011;19118;50.860;13.662;2023-11-21T12:56:12;610.50;;;40.22;;
32746;SDS011;19118;50.860;13.662;2023-11-21T13:01:16;692.83;;;45.72;;
32746;SDS011;19118;50.860;13.662;2023-11-21T13:06:18;257.10;;;22.63;;
32746;SDS011;19118;50.860;13.662;2023-11-21T13:11:20;641.50;;;41.03;;
32746;SDS011;19118;50.860;13.662;2023-11-21T13:16:20;180.75;;;22.83;;
32746;SDS011;19118;50.860;13.662;2023-11-21T13:21:20;31.75;;;14.27;;
32746;SDS011;19118;50.860;13.662;2023-11-21T13:26:22;27.60;;;13.55;;
32746;SDS011;19118;50.860;13.662;2023-11-21T13:31:24;34.22;;;15.27;;
32746;SDS011;19118;50.860;13.662;2023-11-21T13:36:31;30.17;;;12.77;;
32746;SDS011;19118;50.860;13.662;2023-11-21T13:41:35;22.88;;;11.43;;
32746;SDS011;19118;50.860;13.662;2023-11-21T13:46:38;19.25;;;10.15;;
32746;SDS011;19118;50.860;13.662;2023-11-21T13:51:38;18.75;;;9.82;;
32746;SDS011;19118;50.860;13.662;2023-11-21T13:56:45;22.05;;;10.98;;
32746;SDS011;19118;50.860;13.662;2023-11-21T14:01:46;21.48;;;10.63;;
32746;SDS011;19118;50.860;13.662;2023-11-21T14:06:57;23.15;;;9.73;;
32746;SDS011;19118;50.860;13.662;2023-11-21T14:12:00;22.70;;;12.15;;
32746;SDS011;19118;50.860;13.662;2023-11-21T14:17:03;19.33;;;10.30;;
32746;SDS011;19118;50.860;13.662;2023-11-21T14:22:06;19.92;;;10.63;;
32746;SDS011;19118;50.860;13.662;2023-11-21T14:27:09;20.88;;;10.73;;
32746;SDS011;19118;50.860;13.662;2023-11-21T14:32:10;20.20;;;11.32;;
32746;SDS011;19118;50.860;13.662;2023-11-21T14:37:11;77.35;;;17.27;;
32746;SDS011;19118;50.860;13.662;2023-11-21T14:42:13;112.35;;;21.48;;
32746;SDS011;19118;50.860;13.662;2023-11-21T14:47:15;47.15;;;16.80;;
32746;SDS011;19118;50.860;13.662;2023-11-21T14:52:16;138.02;;;17.88;;
32746;SDS011;19118;50.860;13.662;2023-11-21T14:57:33;48.75;;;14.35;;
32746;SDS011;19118;50.860;13.662;2023-11-21T15:02:33;36.20;;;15.32;;
32746;SDS011;19118;50.860;13.662;2023-11-21T15:08:03;29.65;;;11.38;;
32746;SDS011;19118;50.860;13.662;2023-11-21T15:13:27;18.05;;;7.53;;
32746;SDS011;19118;50.860;13.662;2023-11-21T15:18:29;17.38;;;7.70;;
32746;SDS011;19118;50.860;13.662;2023-11-21T15:23:30;16.98;;;8.75;;
32746;SDS011;19118;50.860;13.662;2023-11-21T15:28:35;29.30;;;11.18;;
32746;SDS011;19118;50.860;13.662;2023-11-21T15:33:35;83.95;;;16.75;;
32746;SDS011;19118;50.860;13.662;2023-11-21T15:38:36;63.03;;;16.98;;
32746;SDS011;19118;50.860;13.662;2023-11-21T15:43:39;153.10;;;20.63;;
32746;SDS011;19118;50.860;13.662;2023-11-21T15:48:40;179.55;;;21.73;;
32746;SDS011;19118;50.860;13.662;2023-11-21T15:53:43;44.95;;;17.50;;
32746;SDS011;19118;50.860;13.662;2023-11-21T15:58:44;43.30;;;16.90;;
32746;SDS011;19118;50.860;13.662;2023-11-21T16:03:45;42.50;;;16.17;;
32746;SDS011;19118;50.860;13.662;2023-11-21T16:08:48;38.70;;;15.27;;
32746;SDS011;19118;50.860;13.662;2023-11-21T16:13:48;37.28;;;15.05;;
32746;SDS011;19118;50.860;13.662;2023-11-21T16:18:49;30.80;;;14.40;;
32746;SDS011;19118;50.860;13.662;2023-11-21T16:23:49;39.15;;;16.13;;
32746;SDS011;19118;50.860;13.662;2023-11-21T16:28:49;42.80;;;16.20;;
32746;SDS011;19118;50.860;13.662;2023-11-21T16:33:50;47.58;;;18.88;;
32746;SDS011;19118;50.860;13.662;2023-11-21T16:38:51;45.53;;;19.08;;
32746;SDS011;19118;50.860;13.662;2023-11-21T16:43:51;30.23;;;13.52;;
32746;SDS011;19118;50.860;13.662;2023-11-21T16:48:52;30.35;;;14.18;;
32746;SDS011;19118;50.860;13.662;2023-11-21T16:53:53;29.88;;;13.65;;
32746;SDS011;19118;50.860;13.662;2023-11-21T16:58:53;34.25;;;14.15;;
32746;SDS011;19118;50.860;13.662;2023-11-21T17:03:54;23.98;;;11.40;;
32746;SDS011;19118;50.860;13.662;2023-11-21T17:08:57;20.85;;;10.73;;
32746;SDS011;19118;50.860;13.662;2023-11-21T17:14:00;17.77;;;9.70;;
32746;SDS011;19118;50.860;13.662;2023-11-21T17:19:01;13.55;;;8.13;;
32746;SDS011;19118;50.860;13.662;2023-11-21T17:24:03;14.85;;;7.70;;
32746;SDS011;19118;50.860;13.662;2023-11-21T17:29:04;13.15;;;7.55;;
32746;SDS011;19118;50.860;13.662;2023-11-21T17:34:05;19.67;;;8.90;;
32746;SDS011;19118;50.860;13.662;2023-11-21T17:39:05;19.33;;;9.45;;
32746;SDS011;19118;50.860;13.662;2023-11-21T17:44:10;18.05;;;9.50;;
32746;SDS011;19118;50.860;13.662;2023-11-21T17:49:11;19.10;;;10.32;;
32746;SDS011;19118;50.860;13.662;2023-11-21T17:54:11;13.85;;;7.75;;
32746;SDS011;19118;50.860;13.662;2023-11-21T17:59:12;8.80;;;5.07;;
32746;SDS011;19118;50.860;13.662;2023-11-21T18:04:16;12.38;;;5.20;;
32746;SDS011;19118;50.860;13.662;2023-11-21T18:09:16;9.93;;;6.13;;
32746;SDS011;19118;50.860;13.662;2023-11-21T18:14:17;10.40;;;6.28;;
32746;SDS011;19118;50.860;13.662;2023-11-21T18:19:18;11.65;;;7.47;;
32746;SDS011;19118;50.860;13.662;2023-11-21T18:24:19;11.25;;;6.90;;
32746;SDS011;19118;50.860;13.662;2023-11-21T18:29:19;11.63;;;7.25;;
32746;SDS011;19118;50.860;13.662;2023-11-21T18:34:20;12.18;;;7.63;;
32746;SDS011;19118;50.860;13.662;2023-11-21T18:39:20;11.65;;;7.50;;
32746;SDS011;19118;50.860;13.662;2023-11-21T18:44:20;18.02;;;9.00;;
32746;SDS011;19118;50.860;13.662;2023-11-21T18:49:21;16.98;;;8.80;;
32746;SDS011;19118;50.860;13.662;2023-11-21T18:54:21;13.60;;;8.50;;
32746;SDS011;19118;50.860;13.662;2023-11-21T18:59:22;21.70;;;10.65;;
32746;SDS011;19118;50.860;13.662;2023-11-21T19:04:22;31.67;;;14.18;;
32746;SDS011;19118;50.860;13.662;2023-11-21T19:09:24;69.55;;;28.48;;
32746;SDS011;19118;50.860;13.662;2023-11-21T19:14:25;101.18;;;36.53;;
32746;SDS011;19118;50.860;13.662;2023-11-21T19:19:25;26.08;;;12.32;;
32746;SDS011;19118;50.860;13.662;2023-11-21T19:24:25;112.75;;;38.05;;
32746;SDS011;19118;50.860;13.662;2023-11-21T19:29:26;14.90;;;8.48;;
32746;SDS011;19118;50.860;13.662;2023-11-21T19:34:26;61.90;;;24.30;;
32746;SDS011;19118;50.860;13.662;2023-11-21T19:39:27;25.98;;;11.68;;
32746;SDS011;19118;50.860;13.662;2023-11-21T19:44:28;14.95;;;7.97;;
32746;SDS011;19118;50.860;13.662;2023-11-21T19:49:28;12.35;;;6.32;;
32746;SDS011;19118;50.860;13.662;2023-11-21T19:54:28;43.00;;;16.70;;
32746;SDS011;19118;50.860;13.662;2023-11-21T19:59:29;15.95;;;9.10;;
32746;SDS011;19118;50.860;13.662;2023-11-21T20:04:31;11.55;;;6.97;;
32746;SDS011;19118;50.860;13.662;2023-11-21T20:09:31;10.23;;;5.22;;
32746;SDS011;19118;50.860;13.662;2023-11-21T20:14:32;10.45;;;5.13;;
32746;SDS011;19118;50.860;13.662;2023-11-21T20:19:35;8.35;;;5.22;;
32746;SDS011;19118;50.860;13.662;2023-11-21T20:24:36;11.07;;;6.70;;
32746;SDS011;19118;50.860;13.662;2023-11-21T20:29:37;11.27;;;6.35;;
32746;SDS011;19118;50.860;13.662;2023-11-21T20:34:39;11.23;;;6.10;;
32746;SDS011;19118;50.860;13.662;2023-11-21T20:39:40;8.32;;;4.97;;
32746;SDS011;19118;50.860;13.662;2023-11-21T20:44:40;10.80;;;5.38;;
32746;SDS011;19118;50.860;13.662;2023-11-21T20:49:41;20.08;;;9.15;;
32746;SDS011;19118;50.860;13.662;2023-11-21T20:54:41;13.40;;;8.73;;
32746;SDS011;19118;50.860;13.662;2023-11-21T20:59:41;24.77;;;10.90;;
32746;SDS011;19118;50.860;13.662;2023-11-21T21:04:43;15.25;;;7.15;;
32746;SDS011;19118;50.860;13.662;2023-11-21T21:09:43;15.77;;;9.07;;
32746;SDS011;19118;50.860;13.662;2023-11-21T21:14:44;10.63;;;6.63;;
32746;SDS011;19118;50.860;13.662;2023-11-21T21:19:44;12.00;;;7.75;;
32746;SDS011;19118;50.860;13.662;2023-11-21T21:24:44;12.07;;;7.10;;
32746;SDS011;19118;50.860;13.662;2023-11-21T21:29:45;14.65;;;7.20;;
32746;SDS011;19118;50.860;13.662;2023-11-21T21:34:45;10.10;;;6.63;;
32746;SDS011;19118;50.860;13.662;2023-11-21T21:39:46;29.43;;;14.57;;
32746;SDS011;19118;50.860;13.662;2023-11-21T21:44:47;25.08;;;15.00;;
32746;SDS011;19118;50.860;13.662;2023-11-21T21:49:49;13.23;;;8.48;;
32746;SDS011;19118;50.860;13.662;2023-11-21T21:54:50;13.27;;;6.60;;
32746;SDS011;19118;50.860;13.662;2023-11-21T21:59:51;13.32;;;8.55;;
32746;SDS011;19118;50.860;13.662;2023-11-21T22:04:52;12.35;;;7.85;;
32746;SDS011;19118;50.860;13.662;2023-11-21T22:09:52;16.42;;;10.35;;
32746;SDS011;19118;50.860;13.662;2023-11-21T22:14:53;18.38;;;11.35;;
32746;SDS011;19118;50.860;13.662;2023-11-21T22:19:54;18.58;;;10.80;;
32746;SDS011;19118;50.860;13.662;2023-11-21T22:24:54;24.83;;;12.32;;
32746;SDS011;19118;50.860;13.662;2023-11-21T22:29:55;26.80;;;14.07;;
32746;SDS011;19118;50.860;13.662;2023-11-21T22:34:55;24.50;;;14.27;;
32746;SDS011;19118;50.860;13.662;2023-11-21T22:39:56;25.17;;;14.77;;
32746;SDS011;19118;50.860;13.662;2023-11-21T22:44:57;25.02;;;15.02;;
32746;SDS011;19118;50.860;13.662;2023-11-21T22:49:57;22.10;;;13.25;;
32746;SDS011;19118;50.860;13.662;2023-11-21T22:54:57;21.95;;;13.77;;
32746;SDS011;19118;50.860;13.662;2023-11-21T22:59:58;23.42;;;13.82;;
32746;SDS011;19118;50.860;13.662;2023-11-21T23:04:58;21.27;;;12.98;;
32746;SDS011;19118;50.860;13.662;2023-11-21T23:09:58;19.00;;;12.00;;
32746;SDS011;19118;50.860;13.662;2023-11-21T23:14:59;24.40;;;15.05;;
32746;SDS011;19118;50.860;13.662;2023-11-21T23:19:59;25.20;;;14.45;;
32746;SDS011;19118;50.860;13.662;2023-11-21T23:25:00;28.00;;;14.80;;
32746;SDS011;19118;50.860;13.662;2023-11-21T23:30:00;24.75;;;14.30;;
32746;SDS011;19118;50.860;13.662;2023-11-21T23:35:01;26.38;;;15.18;;
32746;SDS011;19118;50.860;13.662;2023-11-21T23:40:01;26.30;;;15.65;;
32746;SDS011;19118;50.860;13.662;2023-11-21T23:45:06;29.73;;;16.05;;
32746;SDS011;19118;50.860;13.662;2023-11-21T23:50:07;25.98;;;15.50;;
32746;SDS011;19118;50.860;13.662;2023-11-21T23:55:08;23.55;;;13.25;;
